Flight Track Log - Related Links

Times and Time Zones

All times are in EDT time to prevent confusion due to time zone crossing. See the SWA561 flight status page for this flight to view local times or setup timezone preferences in your user account.

Time Position Orientation Groundspeed Altitude Reporting Facility
EDT Latitude Longitude Course Direction KTS MPH feet Rate Location/Type
Sun 08:17:22 PM 37.6833 -122.1833 139° Southeast 169 194 2,000  Level Northern Cal TRACON
Sun 08:17:58 PM 37.6639 -122.1617 139° Southeast 203 234 2,800 1,423 Climbing Oakland Center
Sun 08:18:59 PM 37.6067 -122.1278 155° Southeast 226 260 4,300 2,557 Climbing Oakland Center
Sun 08:20:00 PM 37.5422 -122.1031 163° South 252 290 8,000 3,246 Climbing Oakland Center
Sun 08:21:01 PM 37.4758 -122.0572 151° Southeast 277 319 10,900 3,246 Climbing Oakland Center
Sun 08:22:02 PM 37.3953 -122.0031 152° Southeast 326 375 14,600 3,393 Climbing Oakland Center
Sun 08:23:03 PM 37.3114 -121.9478 152° Southeast 341 392 17,800 3,246 Climbing Oakland Center
Sun 08:24:04 PM 37.2247 -121.8908 152° Southeast 352 405 21,200 3,000 Climbing Oakland Center
Sun 08:25:05 PM 37.1331 -121.8308 152° Southeast 370 426 23,900 2,951 Climbing Oakland Center
Sun 08:26:06 PM 37.0200 -121.7567 152° Southeast 381 438 27,200 2,459 Climbing Oakland Center
Sun 08:27:07 PM 36.9361 -121.6711 141° Southeast 390 449 28,900 1,869 Climbing Oakland Center
Sun 08:28:08 PM 36.8597 -121.5631 131° Southeast 411 473 31,000 1,869 Climbing Oakland Center
Sun 08:29:09 PM 36.7831 -121.4628 134° Southeast 416 479 32,700 1,512 Climbing Oakland Center
Sun 08:30:11 PM 36.7036 -121.3550 133° Southeast 421 484 34,100 1,122 Climbing Oakland Center
Sun 08:31:12 PM 36.6206 -121.2464 134° Southeast 430 495 35,000 443 Climbing Oakland Center
Sun 08:32:13 PM 36.5367 -121.1339 133° Southeast 440 506 35,000  Level Oakland Center
Sun 08:33:14 PM 36.4525 -121.0231 133° Southeast 442 509 35,000  Level Oakland Center
Sun 08:34:15 PM 36.3686 -120.9125 133° Southeast 441 507 35,000  Level Oakland Center
Sun 08:35:16 PM 36.2667 -120.7792 133° Southeast 443 510 35,000  Level Oakland Center
Sun 08:36:17 PM 36.1819 -120.6706 134° Southeast 440 506 35,000  Level Oakland Center
Sun 08:37:18 PM 36.0969 -120.5600 134° Southeast 441 507 35,000  Level Oakland Center
Sun 08:38:19 PM 36.0114 -120.4439 132° Southeast 464 534 35,000  Level Oakland Center
Sun 08:39:21 PM 35.9253 -120.3392 135° Southeast 439 505 35,000  Level Oakland Center
Sun 08:40:22 PM 35.8394 -120.2275 133° Southeast 445 512 35,000  Level Oakland Center
Sun 08:41:23 PM 35.7525 -120.1153 134° Southeast 448 516 35,000  Level Oakland Center
Sun 08:42:24 PM 35.6667 -120.0042 134° Southeast 446 513 35,000  Level Oakland Center
Sun 08:43:25 PM 35.5669 -119.9117 143° Southeast 446 513 35,000  Level Oakland Center
Sun 08:44:26 PM 35.4650 -119.8225 145° Southeast 445 512 35,000  Level Oakland Center
Sun 08:45:28 PM 35.3631 -119.7339 145° Southeast 446 513 35,000 -660 Level Oakland Center
Sun 08:46:06 PM 35.3025 -119.6808 144° Southeast 446 513 33,900 -2,121 Descending Los Angeles Center
Sun 08:47:07 PM 35.2028 -119.5964 145° Southeast 438 504 31,500 -2,439 Descending Los Angeles Center
Sun 08:48:09 PM 35.0872 -119.4972 145° Southeast 424 488 28,900 -2,274 Descending Los Angeles Center
Sun 08:49:11 PM 34.9956 -119.4194 145° Southeast 404 465 26,800 -1,984 Descending Los Angeles Center
Sun 08:50:13 PM 34.9075 -119.3447 145° Southeast 390 449 24,800 -1,887 Descending Los Angeles Center
Sun 08:51:15 PM 34.8233 -119.2733 145° Southeast 373 429 22,900 -1,610 Descending Los Angeles Center
Sun 08:52:16 PM 34.7578 -119.2183 145° Southeast 362 417 21,500 -1,756 Descending Los Angeles Center
Sun 08:53:18 PM 34.6633 -119.1375 145° Southeast 347 399 19,300 -2,032 Descending Los Angeles Center
Sun 08:54:20 PM 34.5722 -119.0639 146° Southeast 356 410 17,300 -1,887 Descending Los Angeles Center
Sun 08:55:22 PM 34.4931 -118.9967 145° Southeast 347 399 15,400 -1,839 Descending Los Angeles Center
Sun 08:56:24 PM 34.4167 -118.9289 144° Southeast 339 390 13,500 -1,467 Descending Los Angeles Center
Sun 08:57:37 PM 34.3372 -118.8811 154° Southeast 317 365 12,100 -1,216 Descending Los Angeles Center
Sun 08:58:52 PM 34.2300 -118.8569 169° South 280 322 10,500 -1,489 Descending Los Angeles Center
Sun 08:59:54 PM 34.1439 -118.8228 162° South 277 319 8,700 -1,610 Descending Los Angeles Center
Sun 09:00:55 PM 34.0739 -118.7906 159° South 271 312 7,200 -1,707 Descending Los Angeles Center
Sun 09:01:57 PM 33.9978 -118.7617 163° South 260 299 5,200 -1,839 Descending Los Angeles Center
Sun 09:02:59 PM 33.9575 -118.6911 125° Southeast 258 297 3,400 -1,561 Descending Los Angeles Center
Sun 09:04:00 PM 33.9361 -118.6128 108° East 248 285 2,000 -683 Descending Los Angeles Center
Sun 09:05:02 PM 33.9386 -118.5378 88° East 203 234 2,000 -484 Level Los Angeles Center
Sun 09:06:04 PM 33.9444 -118.4819 83° East 172 198 1,000 -829 Descending Los Angeles Center
Sun 09:07:05 PM 33.9478 -118.4381 85° East 137 158 300 -689 Descending Los Angeles Center
Sun 09:09:00 PM 33.9425 -118.4081 104° East  Level Estimated
Sun 09:16:00 PM 33.9425 -118.4081 104° East  Level Estimated

Login

Don't have an account? Register now (free) for customized features, flight alerts, and more!